createdAt,value
2023-03-31T00:01:45.856Z,28.30
2023-03-31T00:04:13.552Z,25.95
2023-03-31T00:06:42.246Z,26.95
2023-03-31T00:09:18.847Z,29.63
2023-03-31T00:11:46.210Z,32.33
2023-03-31T00:14:12.604Z,35.25
2023-03-31T00:16:39.452Z,39.03
2023-03-31T00:19:05.948Z,47.38
2023-03-31T00:21:36.929Z,50.40
2023-03-31T00:24:06.269Z,50.78
2023-03-31T00:26:34.134Z,47.65
2023-03-31T00:29:00.869Z,47.25
2023-03-31T00:31:28.861Z,48.47
2023-03-31T00:33:56.054Z,47.45
2023-03-31T00:36:27.363Z,48.65
2023-03-31T00:38:56.140Z,47.20
2023-03-31T00:41:22.687Z,44.70
2023-03-31T00:44:12.879Z,38.83
2023-03-31T00:46:44.395Z,33.67
2023-03-31T00:49:20.774Z,35.70
2023-03-31T00:51:49.648Z,33.92
2023-03-31T00:54:16.181Z,37.90
2023-03-31T00:56:48.010Z,36.75
2023-03-31T00:59:14.693Z,36.03
2023-03-31T01:01:44.289Z,39.10
2023-03-31T01:04:13.917Z,39.60
2023-03-31T01:06:50.350Z,37.22
2023-03-31T01:09:16.936Z,35.67
2023-03-31T01:11:46.200Z,35.40
2023-03-31T01:14:13.057Z,31.70
2023-03-31T01:16:39.874Z,32.33
2023-03-31T01:19:19.870Z,31.95
2023-03-31T01:22:17.141Z,32.60
2023-03-31T01:25:09.829Z,29.63
2023-03-31T01:28:07.307Z,28.27
2023-03-31T01:31:02.975Z,31.92
2023-03-31T01:33:38.294Z,29.35
2023-03-31T01:36:37.647Z,33.17
2023-03-31T01:39:11.641Z,33.33
2023-03-31T01:41:57.937Z,39.10
2023-03-31T01:44:45.761Z,42.65
2023-03-31T01:47:23.168Z,45.83
2023-03-31T01:50:00.248Z,49.15
2023-03-31T01:52:42.157Z,57.25
2023-03-31T01:55:16.289Z,52.33
2023-03-31T01:57:52.715Z,67.80
2023-03-31T02:00:33.266Z,55.75
2023-03-31T02:03:02.353Z,55.63
2023-03-31T02:05:43.969Z,64.85
2023-03-31T02:08:23.038Z,63.95
2023-03-31T02:10:52.015Z,76.07
2023-03-31T02:13:21.040Z,92.63
2023-03-31T02:15:54.681Z,75.35
2023-03-31T02:18:26.178Z,82.25
2023-03-31T02:20:54.491Z,79.05
2023-03-31T02:23:26.616Z,77.43
2023-03-31T02:25:59.551Z,84.72
2023-03-31T02:28:28.286Z,80.63
2023-03-31T02:31:12.869Z,80.10
2023-03-31T02:36:06.419Z,75.13
2023-03-31T02:38:39.001Z,80.10
2023-03-31T02:41:06.466Z,77.70
2023-03-31T02:43:33.057Z,79.47
2023-03-31T02:45:59.499Z,76.28
2023-03-31T02:48:32.527Z,76.43
2023-03-31T02:51:08.618Z,69.75
2023-03-31T02:54:12.508Z,67.38
2023-03-31T02:56:47.947Z,68.82
2023-03-31T02:59:39.836Z,66.90
2023-03-31T03:02:37.370Z,64.20
2023-03-31T03:05:23.699Z,56.85
2023-03-31T03:08:07.129Z,55.60
2023-03-31T03:11:01.522Z,51.58
2023-03-31T03:13:46.453Z,51.70
2023-03-31T03:16:28.975Z,48.75
2023-03-31T03:19:00.294Z,49.42
2023-03-31T03:21:28.123Z,50.63
2023-03-31T03:23:54.769Z,46.65
2023-03-31T03:26:23.524Z,45.65
2023-03-31T03:28:51.140Z,50.50
2023-03-31T03:31:17.512Z,50.15
2023-03-31T03:33:43.912Z,47.13
2023-03-31T03:36:10.760Z,49.90
2023-03-31T03:38:37.204Z,48.45
2023-03-31T03:41:03.924Z,44.90
2023-03-31T03:43:30.589Z,43.22
2023-03-31T03:45:57.085Z,42.40
2023-03-31T03:48:23.628Z,39.20
2023-03-31T03:50:50.512Z,44.78
2023-03-31T03:53:16.914Z,38.47
2023-03-31T03:55:43.251Z,36.78
2023-03-31T03:58:09.696Z,40.72
2023-03-31T04:00:36.079Z,39.28
2023-03-31T04:03:02.798Z,38.65
2023-03-31T04:05:29.199Z,39.22
2023-03-31T04:07:55.625Z,37.88
2023-03-31T04:10:21.981Z,38.13
2023-03-31T04:12:48.407Z,37.58
2023-03-31T04:15:15.280Z,36.65
2023-03-31T04:17:41.758Z,34.35
2023-03-31T04:20:10.183Z,32.13
2023-03-31T04:22:40.814Z,27.92
2023-03-31T04:25:16.476Z,26.33
2023-03-31T04:27:54.538Z,26.15
2023-03-31T04:30:30.737Z,23.20
2023-03-31T04:32:59.938Z,23.00
2023-03-31T04:35:49.581Z,24.98
2023-03-31T04:38:18.759Z,22.95
2023-03-31T04:40:47.345Z,23.58
2023-03-31T04:43:14.492Z,24.98
2023-03-31T04:45:41.501Z,23.73
2023-03-31T04:48:08.512Z,23.92
2023-03-31T04:50:35.858Z,21.77
2023-03-31T04:53:03.578Z,22.40
2023-03-31T04:55:30.095Z,22.55
2023-03-31T04:57:56.727Z,22.40
2023-03-31T05:00:23.676Z,23.42
2023-03-31T05:02:51.455Z,21.23
2023-03-31T05:05:18.358Z,22.77
2023-03-31T05:07:44.739Z,22.42
2023-03-31T05:10:11.116Z,21.27
2023-03-31T05:12:37.921Z,21.55
2023-03-31T05:15:06.389Z,23.02
2023-03-31T05:17:34.210Z,20.60
2023-03-31T05:20:01.043Z,22.92
2023-03-31T05:22:27.741Z,24.50
2023-03-31T05:24:54.085Z,22.45
2023-03-31T05:27:21.840Z,19.88
2023-03-31T05:29:48.197Z,22.33
2023-03-31T05:32:14.537Z,20.13
2023-03-31T05:34:43.140Z,20.42
2023-03-31T05:37:09.551Z,21.23
2023-03-31T05:39:36.041Z,20.95
2023-03-31T05:42:03.415Z,21.77
2023-03-31T05:44:29.756Z,22.92
2023-03-31T05:46:56.362Z,20.98
2023-03-31T05:49:22.740Z,22.98
2023-03-31T05:51:49.083Z,23.25
2023-03-31T05:54:15.515Z,24.52
2023-03-31T05:56:41.848Z,28.67
2023-03-31T05:59:08.309Z,28.23
2023-03-31T06:01:50.782Z,28.90
2023-03-31T06:04:17.208Z,25.42
2023-03-31T06:06:44.318Z,29.10
2023-03-31T06:09:12.276Z,29.13
2023-03-31T06:11:38.891Z,25.05
2023-03-31T06:14:05.499Z,26.65
2023-03-31T06:16:31.923Z,26.80
2023-03-31T06:18:58.274Z,25.90
2023-03-31T06:21:24.599Z,27.60
2023-03-31T06:23:55.046Z,32.60
2023-03-31T06:26:22.820Z,31.48
2023-03-31T06:28:49.334Z,31.77
2023-03-31T06:31:19.919Z,34.58
2023-03-31T06:33:46.624Z,39.38
2023-03-31T06:36:15.578Z,38.58
2023-03-31T06:38:42.334Z,39.75
2023-03-31T06:41:11.730Z,41.47
2023-03-31T06:43:38.133Z,37.35
2023-03-31T06:46:05.721Z,39.38
2023-03-31T06:48:32.524Z,42.20
2023-03-31T06:51:00.734Z,40.92
2023-03-31T06:53:27.897Z,39.50
2023-03-31T06:55:54.343Z,42.60
2023-03-31T06:58:20.720Z,36.45
2023-03-31T07:00:47.280Z,32.05
2023-03-31T07:03:14.281Z,28.77
2023-03-31T07:05:40.992Z,29.48
2023-03-31T07:08:07.448Z,22.58
2023-03-31T07:10:33.791Z,25.38
2023-03-31T07:13:00.290Z,23.83
2023-03-31T07:15:28.209Z,22.85
2023-03-31T07:18:01.881Z,23.55
2023-03-31T07:20:29.863Z,24.00
2023-03-31T07:22:56.709Z,27.92
2023-03-31T07:25:23.186Z,26.85
2023-03-31T07:27:49.819Z,28.35
2023-03-31T07:30:18.828Z,24.48
2023-03-31T07:32:50.151Z,24.50
2023-03-31T07:35:17.873Z,24.00
2023-03-31T07:37:46.635Z,21.35
2023-03-31T07:40:31.323Z,22.25
2023-03-31T07:45:26.212Z,17.15
2023-03-31T07:47:53.425Z,18.60
2023-03-31T07:50:20.399Z,22.08
2023-03-31T07:52:47.389Z,19.50
2023-03-31T07:55:14.618Z,20.55
2023-03-31T07:57:42.134Z,18.70
2023-03-31T08:00:12.161Z,21.27
2023-03-31T08:02:39.931Z,17.08
2023-03-31T08:05:07.534Z,19.15
2023-03-31T08:07:35.671Z,18.85
2023-03-31T08:10:04.515Z,16.27
2023-03-31T08:12:31.170Z,14.27
2023-03-31T08:14:57.586Z,14.55
2023-03-31T08:17:23.955Z,13.15
2023-03-31T08:19:51.603Z,12.70
2023-03-31T08:22:18.134Z,12.90
2023-03-31T08:24:44.490Z,13.63
2023-03-31T08:27:12.453Z,13.95
2023-03-31T08:29:39.186Z,13.07
2023-03-31T08:32:07.200Z,14.82
2023-03-31T08:34:33.832Z,17.40
2023-03-31T08:37:00.208Z,18.90
2023-03-31T08:39:27.253Z,22.48
2023-03-31T08:42:16.170Z,20.73
2023-03-31T08:44:57.461Z,18.27
2023-03-31T08:47:26.942Z,21.83
2023-03-31T08:50:02.966Z,24.55
2023-03-31T08:52:40.710Z,20.92
2023-03-31T08:55:12.188Z,20.85
2023-03-31T08:57:56.153Z,20.58
2023-03-31T09:00:22.789Z,21.70
2023-03-31T09:03:00.375Z,21.88
2023-03-31T09:06:12.851Z,20.02
2023-03-31T09:08:42.042Z,20.30
2023-03-31T09:11:14.510Z,20.45
2023-03-31T09:13:55.692Z,20.17
2023-03-31T09:16:50.434Z,13.75
2023-03-31T09:19:38.408Z,16.63
2023-03-31T09:23:00.389Z,15.07
2023-03-31T09:25:33.216Z,17.35
2023-03-31T09:28:08.398Z,13.15
2023-03-31T09:30:37.652Z,15.40
2023-03-31T09:33:22.657Z,24.95
2023-03-31T09:35:51.403Z,27.38
2023-03-31T09:38:22.601Z,25.38
2023-03-31T09:41:05.875Z,24.67
2023-03-31T09:43:38.209Z,24.83
2023-03-31T09:49:35.227Z,19.00
2023-03-31T09:52:14.322Z,20.23
2023-03-31T09:54:48.405Z,20.05
2023-03-31T09:57:31.231Z,18.55
2023-03-31T10:00:14.380Z,16.05
2023-03-31T10:02:49.776Z,13.80
2023-03-31T10:05:37.704Z,16.75
2023-03-31T10:08:30.455Z,13.13
2023-03-31T10:10:58.426Z,11.60
2023-03-31T10:13:49.823Z,12.93
2023-03-31T10:16:45.958Z,15.05
2023-03-31T10:19:28.815Z,16.75
2023-03-31T10:21:58.742Z,20.23
2023-03-31T10:24:27.563Z,22.15
2023-03-31T10:26:57.186Z,23.00
2023-03-31T10:29:32.595Z,21.55
2023-03-31T10:32:23.169Z,24.42
2023-03-31T10:34:50.691Z,18.25
2023-03-31T10:37:22.921Z,17.58
2023-03-31T10:40:09.400Z,14.20
2023-03-31T10:42:36.598Z,15.75
2023-03-31T10:45:37.465Z,17.05
2023-03-31T10:48:16.746Z,15.35
2023-03-31T10:53:27.655Z,16.13
2023-03-31T10:56:04.836Z,17.60
2023-03-31T10:58:54.962Z,15.13
2023-03-31T11:01:30.935Z,15.60
2023-03-31T11:04:29.300Z,18.35
2023-03-31T11:07:12.547Z,15.98
2023-03-31T11:10:09.988Z,15.00
2023-03-31T11:12:46.507Z,9.55
2023-03-31T11:15:25.583Z,9.20
2023-03-31T11:18:03.415Z,9.88
2023-03-31T11:20:50.562Z,11.98
2023-03-31T11:23:42.045Z,8.18
2023-03-31T11:26:29.197Z,8.13
2023-03-31T11:29:33.806Z,10.60
2023-03-31T11:32:24.372Z,10.93
2023-03-31T11:35:05.989Z,10.95
2023-03-31T11:37:41.614Z,9.57
2023-03-31T11:40:32.728Z,9.25
2023-03-31T11:43:04.984Z,13.55
2023-03-31T11:45:39.922Z,15.90
2023-03-31T11:48:16.670Z,14.80
2023-03-31T11:50:47.001Z,17.95
2023-03-31T11:53:20.925Z,23.70
2023-03-31T11:55:50.311Z,24.05
2023-03-31T11:59:02.890Z,29.20
2023-03-31T12:01:55.377Z,30.27
2023-03-31T12:04:38.334Z,31.95
2023-03-31T12:07:31.243Z,21.80
2023-03-31T12:10:12.819Z,20.10
2023-03-31T12:12:55.518Z,19.83
2023-03-31T12:15:40.056Z,19.95
2023-03-31T12:18:18.204Z,20.10
2023-03-31T12:20:56.421Z,13.80
2023-03-31T12:23:28.421Z,12.88
2023-03-31T12:26:08.716Z,9.68
2023-03-31T12:28:37.388Z,10.57
2023-03-31T12:31:07.073Z,10.50
2023-03-31T12:33:46.467Z,10.48
2023-03-31T12:36:34.628Z,12.60
2023-03-31T12:39:37.432Z,11.82
2023-03-31T12:42:31.656Z,9.75
2023-03-31T12:45:14.918Z,11.23
2023-03-31T12:47:49.910Z,8.68
2023-03-31T12:50:32.882Z,8.90
2023-03-31T12:53:08.946Z,8.88
2023-03-31T12:55:57.713Z,7.90
2023-03-31T12:58:31.752Z,7.93
2023-03-31T13:01:05.731Z,9.77
2023-03-31T13:03:40.479Z,9.18
2023-03-31T13:06:11.126Z,8.30
2023-03-31T13:09:17.663Z,9.00
2023-03-31T13:11:49.910Z,11.07
2023-03-31T13:14:31.591Z,11.43
2023-03-31T13:17:35.801Z,12.02
2023-03-31T13:20:32.207Z,9.18
2023-03-31T13:23:25.430Z,8.48
2023-03-31T13:25:53.449Z,9.88
2023-03-31T13:28:25.943Z,9.38
2023-03-31T13:30:54.984Z,8.20
2023-03-31T13:33:26.821Z,9.23
2023-03-31T13:36:06.201Z,8.32
2023-03-31T13:38:41.736Z,8.32
2023-03-31T13:41:37.637Z,9.35
2023-03-31T13:44:18.067Z,9.00
2023-03-31T13:47:18.097Z,9.60
2023-03-31T13:49:55.775Z,9.27
2023-03-31T13:52:44.406Z,7.93
2023-03-31T13:55:32.515Z,9.15
2023-03-31T13:58:24.971Z,9.07
2023-03-31T14:01:10.381Z,9.07
2023-03-31T14:04:03.023Z,8.50
2023-03-31T14:06:39.708Z,9.10
2023-03-31T14:09:13.585Z,10.50
2023-03-31T14:11:40.122Z,9.18
2023-03-31T14:14:17.297Z,8.75
2023-03-31T14:17:00.533Z,9.48
2023-03-31T14:19:42.080Z,9.90
2023-03-31T14:22:32.464Z,10.73
2023-03-31T14:25:13.835Z,13.63
2023-03-31T14:28:05.267Z,16.55
2023-03-31T14:30:53.881Z,18.02
2023-03-31T14:33:59.371Z,24.17
2023-03-31T14:36:37.990Z,28.05
2023-03-31T14:39:07.335Z,28.90
2023-03-31T14:41:33.771Z,33.40
2023-03-31T14:44:06.804Z,38.65
2023-03-31T14:46:38.372Z,36.78
2023-03-31T14:49:21.361Z,43.33
2023-03-31T14:51:48.688Z,51.75
2023-03-31T14:54:20.206Z,57.45
2023-03-31T14:56:51.031Z,55.83
2023-03-31T14:59:23.046Z,57.38
2023-03-31T15:01:50.839Z,60.80
2023-03-31T15:04:28.825Z,64.53
2023-03-31T15:09:33.672Z,46.92
2023-03-31T15:12:03.727Z,36.45
2023-03-31T15:14:37.810Z,34.30
2023-03-31T15:17:04.250Z,34.95
2023-03-31T15:19:34.362Z,33.40
2023-03-31T15:22:18.608Z,31.13
2023-03-31T15:24:46.455Z,29.80
2023-03-31T15:27:38.631Z,32.78
2023-03-31T15:30:14.715Z,30.60
2023-03-31T15:32:41.844Z,29.15
2023-03-31T15:35:22.574Z,29.38
2023-03-31T15:37:52.179Z,32.45
2023-03-31T15:40:29.982Z,33.40
2023-03-31T15:45:50.991Z,27.00
2023-03-31T15:48:23.461Z,33.03
2023-03-31T15:50:51.724Z,23.98
2023-03-31T15:53:27.434Z,25.90
2023-03-31T15:55:56.792Z,19.90
2023-03-31T15:58:44.470Z,19.85
2023-03-31T16:01:15.689Z,26.88
2023-03-31T16:03:42.217Z,25.30
2023-03-31T16:06:19.247Z,24.48
2023-03-31T16:08:50.476Z,27.05
2023-03-31T16:11:26.647Z,25.45
2023-03-31T16:13:58.089Z,21.90
2023-03-31T16:16:27.114Z,16.17
2023-03-31T16:19:09.964Z,14.38
2023-03-31T16:21:42.930Z,15.90
2023-03-31T16:24:09.896Z,21.67
2023-03-31T16:26:37.486Z,21.52
2023-03-31T16:29:05.181Z,28.70
2023-03-31T16:31:37.633Z,30.80
2023-03-31T16:34:06.720Z,31.38
2023-03-31T16:36:33.893Z,32.75
2023-03-31T16:39:02.306Z,30.73
2023-03-31T16:41:29.622Z,35.42
2023-03-31T16:43:56.210Z,30.08
2023-03-31T16:46:23.204Z,31.67
2023-03-31T16:48:50.258Z,29.70
2023-03-31T16:51:17.164Z,30.13
2023-03-31T16:53:44.330Z,35.08
2023-03-31T16:56:11.866Z,32.33
2023-03-31T16:58:39.173Z,35.25
2023-03-31T17:01:07.297Z,34.47
2023-03-31T17:03:36.559Z,76.47
2023-03-31T17:06:09.014Z,47.13
2023-03-31T17:08:35.494Z,53.97
2023-03-31T17:11:05.221Z,73.55
2023-03-31T17:13:33.797Z,59.20
2023-03-31T17:18:46.657Z,68.32
2023-03-31T17:21:15.687Z,68.93
2023-03-31T17:23:42.879Z,74.63
2023-03-31T17:26:12.825Z,113.68
2023-03-31T17:28:40.049Z,72.10
2023-03-31T17:31:14.493Z,70.75
2023-03-31T17:33:41.726Z,61.08
2023-03-31T17:36:08.722Z,90.95
2023-03-31T17:38:35.614Z,61.10
2023-03-31T17:41:07.463Z,55.95
2023-03-31T17:43:35.388Z,56.17
2023-03-31T17:46:09.939Z,62.15
2023-03-31T17:48:39.246Z,52.67
2023-03-31T17:51:18.145Z,61.63
2023-03-31T17:53:46.777Z,47.20
2023-03-31T17:56:14.738Z,47.10
2023-03-31T17:58:41.496Z,45.53
2023-03-31T18:01:09.486Z,44.25
2023-03-31T18:03:36.651Z,41.58
2023-03-31T18:06:06.500Z,39.10
2023-03-31T18:08:34.672Z,40.67
2023-03-31T18:11:02.837Z,31.40
2023-03-31T18:13:29.231Z,29.02
2023-03-31T18:15:56.265Z,24.77
2023-03-31T18:18:25.943Z,24.90
2023-03-31T18:20:52.878Z,26.27
2023-03-31T18:23:19.698Z,27.58
2023-03-31T18:25:46.561Z,26.77
2023-03-31T18:28:14.409Z,27.58
2023-03-31T18:30:43.316Z,22.60
2023-03-31T18:33:11.678Z,23.40
2023-03-31T18:35:39.279Z,27.83
2023-03-31T18:38:06.432Z,26.98
2023-03-31T18:40:33.613Z,25.30
2023-03-31T18:43:00.652Z,22.23
2023-03-31T18:45:28.243Z,23.00
2023-03-31T18:47:55.068Z,22.95
2023-03-31T18:50:23.354Z,24.02
2023-03-31T18:52:54.502Z,24.17
2023-03-31T18:55:21.973Z,22.70
2023-03-31T18:57:48.679Z,24.20
2023-03-31T19:00:15.870Z,23.15
2023-03-31T19:02:42.502Z,23.35
2023-03-31T19:05:09.654Z,24.80
2023-03-31T19:07:36.347Z,22.73
2023-03-31T19:10:03.827Z,25.42
2023-03-31T19:12:30.532Z,23.20
2023-03-31T19:14:58.210Z,28.88
2023-03-31T19:17:24.898Z,23.98
2023-03-31T19:19:51.333Z,23.42
2023-03-31T19:22:17.743Z,22.73
2023-03-31T19:24:45.074Z,29.85
2023-03-31T19:27:12.622Z,28.10
2023-03-31T19:29:39.026Z,24.48
2023-03-31T19:32:06.065Z,22.67
2023-03-31T19:34:32.502Z,24.10
2023-03-31T19:36:58.860Z,23.17
2023-03-31T19:39:26.667Z,25.85
2023-03-31T19:41:53.043Z,21.23
2023-03-31T19:44:19.603Z,21.67
2023-03-31T19:46:48.080Z,21.55
2023-03-31T19:49:15.245Z,21.52
2023-03-31T19:51:41.793Z,22.98
2023-03-31T19:54:11.277Z,24.15
2023-03-31T19:56:38.079Z,33.75
2023-03-31T19:59:05.307Z,26.00
2023-03-31T20:01:32.392Z,25.05
2023-03-31T20:03:59.161Z,24.58
2023-03-31T20:06:28.494Z,24.58
2023-03-31T20:08:58.138Z,25.17
2023-03-31T20:11:26.274Z,23.00
2023-03-31T20:13:53.562Z,23.75
2023-03-31T20:16:23.564Z,23.95
2023-03-31T20:18:55.507Z,22.25
2023-03-31T20:21:24.654Z,21.45
2023-03-31T20:23:51.635Z,23.67
2023-03-31T20:26:20.497Z,30.38
2023-03-31T20:28:47.710Z,29.85
2023-03-31T20:31:20.149Z,28.42
2023-03-31T20:33:47.384Z,35.10
2023-03-31T20:36:16.962Z,36.65
2023-03-31T20:38:46.506Z,36.45
2023-03-31T20:41:14.501Z,34.85
2023-03-31T20:43:41.024Z,36.92
2023-03-31T20:46:08.683Z,32.63
2023-03-31T20:48:37.894Z,33.10
2023-03-31T20:51:07.082Z,32.55
2023-03-31T20:53:41.878Z,33.83
2023-03-31T20:56:18.330Z,30.88
2023-03-31T20:58:45.939Z,36.55
2023-03-31T21:01:18.201Z,36.50
2023-03-31T21:03:48.948Z,34.10
2023-03-31T21:06:16.278Z,34.38
2023-03-31T21:09:01.429Z,36.15
2023-03-31T21:11:28.248Z,37.00
2023-03-31T21:13:54.873Z,38.90
2023-03-31T21:16:22.916Z,35.83
2023-03-31T21:18:51.696Z,36.95
2023-03-31T21:21:19.349Z,36.05
2023-03-31T21:23:46.665Z,32.97
2023-03-31T21:26:15.558Z,35.83
2023-03-31T21:28:43.280Z,35.75
2023-03-31T21:31:16.931Z,37.55
2023-03-31T21:33:45.973Z,43.33
2023-03-31T21:36:17.956Z,43.17
2023-03-31T21:38:45.500Z,43.13
2023-03-31T21:41:17.584Z,49.10
2023-03-31T21:43:44.828Z,44.90
2023-03-31T21:46:27.269Z,42.13
2023-03-31T21:48:54.359Z,42.95
2023-03-31T21:51:22.206Z,39.05
2023-03-31T21:53:49.672Z,41.08
2023-03-31T21:56:16.495Z,43.90
2023-03-31T21:58:42.878Z,43.15
2023-03-31T22:01:09.356Z,43.08
2023-03-31T22:03:36.577Z,41.97
2023-03-31T22:06:06.793Z,41.10
2023-03-31T22:08:35.313Z,44.35
2023-03-31T22:11:01.728Z,45.47
2023-03-31T22:13:29.405Z,42.10
2023-03-31T22:15:56.380Z,41.22
2023-03-31T22:18:22.933Z,41.03
2023-03-31T22:20:49.894Z,42.40
2023-03-31T22:23:17.127Z,46.47
2023-03-31T22:25:43.756Z,47.92
2023-03-31T22:28:10.310Z,48.38
2023-03-31T22:30:36.889Z,50.42
2023-03-31T22:33:03.432Z,55.53
2023-03-31T22:35:29.808Z,61.15
2023-03-31T22:37:56.156Z,61.10
2023-03-31T22:40:23.773Z,64.70
2023-03-31T22:42:50.172Z,70.18
2023-03-31T22:45:16.731Z,66.22
2023-03-31T22:47:43.211Z,69.25
2023-03-31T22:50:12.174Z,70.00
2023-03-31T22:52:38.645Z,70.78
2023-03-31T22:55:06.099Z,65.45
2023-03-31T22:57:32.810Z,65.28
2023-03-31T22:59:59.275Z,65.15
2023-03-31T23:02:25.820Z,64.50
2023-03-31T23:04:52.218Z,96.30
2023-03-31T23:07:18.650Z,55.70
2023-03-31T23:09:45.331Z,54.65
2023-03-31T23:12:11.721Z,56.15
2023-03-31T23:14:38.205Z,58.15
2023-03-31T23:17:04.618Z,52.45
2023-03-31T23:19:31.873Z,51.63
2023-03-31T23:21:58.384Z,47.78
2023-03-31T23:24:26.021Z,49.88
2023-03-31T23:26:52.421Z,52.70
2023-03-31T23:29:18.854Z,45.10
2023-03-31T23:31:45.203Z,49.55
2023-03-31T23:34:13.811Z,46.40
2023-03-31T23:36:42.117Z,48.65
2023-03-31T23:39:08.568Z,50.10
2023-03-31T23:41:34.952Z,47.58
2023-03-31T23:44:01.700Z,49.05
2023-03-31T23:46:29.630Z,52.72
2023-03-31T23:48:56.260Z,49.80
2023-03-31T23:51:22.937Z,53.35
2023-03-31T23:53:50.062Z,54.42
2023-03-31T23:56:16.903Z,61.30
2023-03-31T23:58:44.920Z,60.25
